Main page
METAR-TAF:

METAR-TAF

Airports :

London Biggin Hill, England

London Biggin Hill Airport

latitude: 51-19N, longitude: 000-02E, elevation: 183 m

Current weather observation

The report was made 22 minutes ago, at 08:50 UTC
Wind 13 kt from the South/Southwest
Temperature 11°C
Humidity 94%
Pressure 1022 hPa
Visibility 10 km or more
Broken clouds at a height of 600 ft

METAR: EGKB 290850Z 21013KT 9999 BKN006 11/10 Q1022

Time: 10:12 (09:12 UTC)

Forecast

The report was made 1 hour and 14 minutes ago, at 07:58 UTC
Forecast valid from 29 at 09 UTC to 29 at 18 UTC
Wind 12 kt from the Southwest
Visibility: 2000 m
Broken clouds at a height of 600 ft
haze
Becoming
from 29 at 09 UTC to 29 at 12 UTC
Visibility 10 km or more
Few clouds at a height of 600 ft
Broken clouds at a height of 1800 ft
Temporary
from 29 at 12 UTC to 29 at 15 UTC
Broken clouds at a height of 1400 ft

TAF: EGKB 290758Z 2909/2918 23012KT 2000 HZ BKN006 BECMG 2909/2912 9999 NSW FEW006 BKN018 TEMPO 2912/2915 BKN014

Weather observations and forecasts of more than 4000 airports (METAR and TAF reports).

The available stations are represented by yellow and red dots on the map.

Hover mouse over dot to see the name of the station.

Then click to see weather observations and forecasts.

To change the map : click on the green buttons with a black cross to zoom in, on the green button with a dash to zoom out, or on the green arrows for adjacent maps.


METAR-TAF: